Time;durP1;ratioP1;P1;durP2;ratioP2;P2;SDS_P1;SDS_P2;PMS_P1;PMS_P2;Temp;Humidity;BMP_temperature;BMP_pressure;BME280_temperature;BME280_humidity;BME280_pressure;Samples;Min_cycle;Max_cycle;Signal;HPM_P1;HPM_P2
2022/01/29 00:01:24;;;;;;;7.45;6.75;;;17.10;53.40;;;;;;5075541;28;20259;-59
2022/01/29 00:03:50;;;;;;;8.32;7.30;;;17.10;53.40;;;;;;5075901;28;20179;-61
2022/01/29 00:06:16;;;;;;;9.80;7.18;;;17.10;53.40;;;;;;5075516;28;20549;-59
2022/01/29 00:08:43;;;;;;;8.73;7.03;;;17.10;53.40;;;;;;5075076;28;20983;-59
2022/01/29 00:11:12;;;;;;;8.13;7.15;;;17.10;53.40;;;;;;5075564;28;20178;-60
2022/01/29 00:13:38;;;;;;;7.97;7.18;;;17.10;53.40;;;;;;5075887;28;20177;-61
2022/01/29 00:16:04;;;;;;;8.13;7.15;;;17.10;53.40;;;;;;5074938;28;20175;-62
2022/01/29 00:18:29;;;;;;;9.15;7.63;;;17.10;53.40;;;;;;5075972;28;20178;-59
2022/01/29 00:20:55;;;;;;;8.38;7.00;;;17.10;53.40;;;;;;5075493;28;20190;-59
2022/01/29 00:23:20;;;;;;;8.13;7.00;;;17.00;53.30;;;;;;5074980;28;20652;-61
2022/01/29 00:25:46;;;;;;;8.68;7.78;;;17.00;53.40;;;;;;5075321;28;20564;-59
2022/01/29 00:28:12;;;;;;;7.82;7.13;;;17.00;53.40;;;;;;5075120;28;20586;-58
2022/01/29 00:30:42;;;;;;;7.60;6.90;;;17.00;53.30;;;;;;5074594;28;20629;-61
2022/01/29 00:33:08;;;;;;;7.88;7.18;;;17.00;53.40;;;;;;5075418;28;20174;-58
2022/01/29 00:35:33;;;;;;;8.15;7.20;;;17.00;53.40;;;;;;5075447;28;20269;-59
2022/01/29 00:37:59;;;;;;;7.68;6.97;;;17.00;53.40;;;;;;5074528;28;20167;-60
2022/01/29 00:40:24;;;;;;;8.05;7.25;;;17.00;53.40;;;;;;5075145;28;20170;-61
2022/01/29 00:42:50;;;;;;;8.00;7.20;;;17.20;53.50;;;;;;5075290;28;20261;-61
2022/01/29 00:45:16;;;;;;;8.43;7.57;;;17.00;53.40;;;;;;5074182;28;20748;-60
2022/01/29 00:47:41;;;;;;;8.10;7.28;;;16.90;53.40;;;;;;5074587;28;20178;-60
2022/01/29 00:50:08;;;;;;;8.13;7.32;;;16.90;53.40;;;;;;5074870;28;20189;-59
2022/01/29 00:52:33;;;;;;;8.43;7.47;;;16.90;53.40;;;;;;5074005;28;20598;-60
2022/01/29 00:54:59;;;;;;;8.02;7.22;;;16.90;53.40;;;;;;5074780;28;20253;-61
2022/01/29 00:57:30;;;;;;;8.50;7.05;;;16.90;53.40;;;;;;5075168;28;20166;-60
2022/01/29 00:59:55;;;;;;;7.70;6.90;;;16.90;53.40;;;;;;5074179;28;20226;-60
2022/01/29 01:02:21;;;;;;;8.40;7.60;;;16.90;53.40;;;;;;5075031;28;20707;-60
2022/01/29 01:04:47;;;;;;;7.93;7.20;;;16.90;53.30;;;;;;5073950;28;20179;-59
2022/01/29 01:07:12;;;;;;;8.65;7.65;;;16.90;53.40;;;;;;5074671;28;20224;-59
2022/01/29 01:09:38;;;;;;;7.75;7.00;;;16.80;53.40;;;;;;5074789;28;20163;-59
2022/01/29 01:12:04;;;;;;;8.95;7.38;;;16.80;53.30;;;;;;5073742;28;20174;-61
2022/01/29 01:14:29;;;;;;;8.15;7.32;;;16.80;53.30;;;;;;5074672;28;20641;-61
2022/01/29 01:16:55;;;;;;;8.65;7.43;;;16.80;53.30;;;;;;5074324;28;20170;-60
2022/01/29 01:19:25;;;;;;;8.32;7.53;;;16.80;53.30;;;;;;5073545;28;20688;-61
2022/01/29 01:21:54;;;;;;;9.00;8.00;;;16.80;53.30;;;;;;5074395;28;20261;-60
2022/01/29 01:24:20;;;;;;;9.85;7.63;;;16.80;53.30;;;;;;5074517;28;20178;-61
2022/01/29 01:26:46;;;;;;;8.40;7.60;;;16.80;53.40;;;;;;5073654;28;20214;-60
2022/01/29 01:29:14;;;;;;;8.15;7.43;;;16.80;53.30;;;;;;5074215;28;20181;-60
2022/01/29 01:31:40;;;;;;;8.05;7.20;;;16.80;53.30;;;;;;5074650;28;20265;-60
2022/01/29 01:34:07;;;;;;;8.63;7.72;;;16.80;53.30;;;;;;5073419;28;20576;-59
2022/01/29 01:36:36;;;;;;;8.75;7.68;;;16.80;53.30;;;;;;5074342;28;20255;-60
2022/01/29 01:39:07;;;;;;;8.20;7.38;;;16.80;53.30;;;;;;5073788;28;20174;-61
2022/01/29 01:41:38;;;;;;;7.53;6.82;;;16.80;53.30;;;;;;5073642;28;20228;-61
2022/01/29 01:44:04;;;;;;;8.77;7.82;;;16.70;53.30;;;;;;5073954;28;20255;-60
2022/01/29 01:46:29;;;;;;;7.68;6.90;;;16.70;53.30;;;;;;5074099;28;20386;-60
2022/01/29 01:48:56;;;;;;;8.80;7.93;;;16.80;53.40;;;;;;5073154;28;20262;-60
2022/01/29 01:51:21;;;;;;;8.23;7.53;;;16.70;53.30;;;;;;5073712;28;20226;-60
2022/01/29 01:53:47;;;;;;;9.10;7.35;;;16.70;53.40;;;;;;5073776;28;20170;-61
2022/01/29 01:56:13;;;;;;;8.00;7.30;;;16.70;53.30;;;;;;5073080;28;20189;-60
2022/01/29 01:58:41;;;;;;;7.90;7.05;;;16.70;53.40;;;;;;5073657;28;20206;-60
2022/01/29 02:01:07;;;;;;;8.18;7.32;;;16.70;53.40;;;;;;5072609;28;20229;-60
2022/01/29 02:03:32;;;;;;;7.75;6.97;;;16.70;53.30;;;;;;5073562;28;20178;-59
2022/01/29 02:05:58;;;;;;;8.38;7.57;;;16.70;53.40;;;;;;5073576;28;20734;-60
2022/01/29 02:08:24;;;;;;;9.88;7.30;;;16.70;53.40;;;;;;5071908;28;20186;-60
2022/01/29 02:10:50;;;;;;;8.50;7.70;;;16.60;53.30;;;;;;5073842;28;20258;-60
2022/01/29 02:13:16;;;;;;;9.43;7.68;;;16.60;53.40;;;;;;5073414;28;20192;-61
2022/01/29 02:15:41;;;;;;;7.35;6.65;;;16.60;54.00;;;;;;5072748;28;20688;-62
2022/01/29 02:18:13;;;;;;;8.10;7.40;;;16.60;53.30;;;;;;5073120;28;20170;-60
2022/01/29 02:20:38;;;;;;;8.15;7.35;;;16.60;53.40;;;;;;5073325;28;20197;-60
2022/01/29 02:23:04;;;;;;;8.10;7.10;;;16.60;53.40;;;;;;5072502;28;20174;-60
2022/01/29 02:25:42;;;;;;;8.23;7.28;;;16.60;53.40;;;;;;5073655;28;20213;-60
2022/01/29 02:28:15;;;;;;;8.48;7.78;;;16.60;53.40;;;;;;5073160;28;20191;-61
2022/01/29 02:30:43;;;;;;;7.88;7.18;;;16.60;53.40;;;;;;5072687;28;20175;-61
2022/01/29 02:33:11;;;;;;;7.28;6.57;;;16.60;53.40;;;;;;5072819;28;20171;-59
2022/01/29 02:35:41;;;;;;;7.78;7.00;;;16.60;53.40;;;;;;5073371;28;20174;-59
2022/01/29 02:38:07;;;;;;;9.73;7.50;;;16.60;53.40;;;;;;5072320;28;20225;-60
2022/01/29 02:40:36;;;;;;;8.13;7.30;;;16.60;53.40;;;;;;5073228;28;20178;-60
2022/01/29 02:43:14;;;;;;;7.80;6.97;;;16.60;53.40;;;;;;5072840;28;20209;-60
2022/01/29 02:45:41;;;;;;;6.78;6.20;;;16.60;53.40;;;;;;5072816;28;20630;-60
2022/01/29 02:48:07;;;;;;;7.53;6.82;;;16.50;53.40;;;;;;5072779;28;20175;-60
2022/01/29 02:50:32;;;;;;;7.15;6.28;;;16.50;53.40;;;;;;5072405;28;20174;-60
2022/01/29 02:52:58;;;;;;;6.97;6.28;;;16.50;53.40;;;;;;5072539;28;20708;-61
2022/01/29 02:55:24;;;;;;;6.93;6.28;;;16.50;53.50;;;;;;5072908;28;20170;-60
2022/01/29 02:57:49;;;;;;;7.15;6.45;;;16.50;53.40;;;;;;5072266;28;20269;-61
2022/01/29 03:00:15;;;;;;;7.00;6.40;;;16.50;53.40;;;;;;5072492;28;20657;-60
2022/01/29 03:02:40;;;;;;;7.55;6.85;;;16.50;53.50;;;;;;5073035;28;20320;-60
2022/01/29 03:05:06;;;;;;;7.65;6.88;;;16.50;53.40;;;;;;5071938;28;20174;-59
2022/01/29 03:07:32;;;;;;;7.50;6.85;;;16.50;53.50;;;;;;5072671;28;20174;-60
2022/01/29 03:09:57;;;;;;;7.03;6.32;;;16.50;53.50;;;;;;5072414;28;20186;-60
2022/01/29 03:12:23;;;;;;;6.80;6.20;;;16.50;53.50;;;;;;5077255;28;20174;-60
2022/01/29 03:14:48;;;;;;;6.60;5.75;;;16.50;53.50;;;;;;5079326;28;20703;-60
2022/01/29 03:17:14;;;;;;;6.97;5.93;;;16.50;53.50;;;;;;5078933;28;20593;-61
2022/01/29 03:19:39;;;;;;;6.85;6.22;;;16.50;53.50;;;;;;5078947;28;20667;-60
2022/01/29 03:22:05;;;;;;;7.38;5.90;;;16.50;53.50;;;;;;5079135;28;20185;-60
2022/01/29 03:24:30;;;;;;;6.90;6.22;;;16.50;53.50;;;;;;5079434;28;20178;-60
2022/01/29 03:26:56;;;;;;;6.90;6.32;;;16.50;53.50;;;;;;5078117;28;20220;-60
2022/01/29 03:29:21;;;;;;;6.40;5.80;;;16.40;53.40;;;;;;5079269;28;20529;-61
2022/01/29 03:31:47;;;;;;;6.10;5.60;;;16.50;53.50;;;;;;5079180;28;20178;-60
2022/01/29 03:34:12;;;;;;;6.45;5.85;;;16.40;53.40;;;;;;5078412;28;20181;-60
2022/01/29 03:36:38;;;;;;;6.53;5.93;;;16.40;53.40;;;;;;5079381;28;20170;-60
2022/01/29 03:39:04;;;;;;;6.70;6.10;;;16.40;53.50;;;;;;5079025;28;20679;-60
2022/01/29 03:41:30;;;;;;;5.97;5.47;;;16.40;53.50;;;;;;5078430;28;20182;-60
2022/01/29 03:44:01;;;;;;;5.68;5.18;;;16.40;53.50;;;;;;5078839;28;20224;-60
2022/01/29 03:46:26;;;;;;;6.40;5.85;;;16.40;53.50;;;;;;5078441;28;20217;-60
2022/01/29 03:48:52;;;;;;;6.13;5.63;;;16.40;53.50;;;;;;5078956;28;20171;-60
2022/01/29 03:51:17;;;;;;;5.95;5.45;;;16.40;53.60;;;;;;5078779;28;20580;-60
2022/01/29 03:53:43;;;;;;;6.03;5.43;;;16.40;53.50;;;;;;5078381;28;20181;-60
2022/01/29 03:56:08;;;;;;;6.18;5.68;;;16.30;53.50;;;;;;5078841;28;20174;-61
2022/01/29 03:58:35;;;;;;;5.70;5.18;;;16.40;53.50;;;;;;5078908;28;20577;-61
2022/01/29 04:01:00;;;;;;;6.20;5.70;;;16.30;53.50;;;;;;5077934;28;20166;-61
2022/01/29 04:03:26;;;;;;;6.60;5.95;;;16.40;53.50;;;;;;5079088;28;20171;-61
2022/01/29 04:05:51;;;;;;;5.63;5.13;;;16.40;53.60;;;;;;5078847;28;20213;-60
2022/01/29 04:08:18;;;;;;;5.40;4.90;;;16.40;53.60;;;;;;5078194;28;20648;-60
2022/01/29 04:10:44;;;;;;;5.70;5.20;;;16.30;53.60;;;;;;5078963;28;20182;-60
2022/01/29 04:13:12;;;;;;;5.90;5.40;;;16.30;53.50;;;;;;5078471;28;20178;-61
2022/01/29 04:15:37;;;;;;;6.05;5.55;;;16.30;53.50;;;;;;5078168;28;20184;-61
2022/01/29 04:18:03;;;;;;;5.60;5.10;;;16.30;53.50;;;;;;5078603;28;20253;-61
2022/01/29 04:20:28;;;;;;;5.90;5.40;;;16.30;53.50;;;;;;5078664;28;20269;-60
2022/01/29 04:22:54;;;;;;;6.00;5.50;;;16.30;53.60;;;;;;5075301;28;20166;-60
2022/01/29 04:25:19;;;;;;;6.07;5.68;;;16.30;53.60;;;;;;5075552;28;20206;-60
2022/01/29 04:27:47;;;;;;;5.95;5.45;;;16.30;53.60;;;;;;5075471;28;20178;-61
2022/01/29 04:30:27;;;;;;;5.60;5.10;;;16.30;53.60;;;;;;5074767;28;20174;-61
2022/01/29 04:35:19;;;;;;;5.22;4.82;;;16.30;53.60;;;;;;5075520;28;20539;-61
2022/01/29 04:37:44;;;;;;;6.10;5.60;;;16.30;53.60;;;;;;5074687;28;20536;-60
2022/01/29 04:40:10;;;;;;;5.63;5.15;;;16.30;53.60;;;;;;5075248;28;20265;-60
2022/01/29 04:42:36;;;;;;;5.85;5.35;;;16.30;53.60;;;;;;5075327;28;20202;-60
2022/01/29 04:45:02;;;;;;;6.25;5.53;;;16.30;53.60;;;;;;5074090;28;20210;-60
2022/01/29 04:47:27;;;;;;;5.20;4.80;;;16.30;53.70;;;;;;5075652;28;20179;-61
2022/01/29 04:49:53;;;;;;;5.25;4.85;;;16.30;53.70;;;;;;5074307;28;20182;-59
2022/01/29 04:52:18;;;;;;;6.13;5.60;;;16.20;53.70;;;;;;5075169;28;20676;-60
2022/01/29 04:54:44;;;;;;;5.68;5.18;;;16.20;53.70;;;;;;5075181;28;20174;-60
2022/01/29 04:57:09;;;;;;;5.53;5.13;;;16.30;53.70;;;;;;5074008;28;20561;-60
2022/01/29 04:59:35;;;;;;;5.72;5.22;;;16.20;53.70;;;;;;5075241;28;20185;-60
2022/01/29 05:02:00;;;;;;;5.82;5.40;;;16.20;53.70;;;;;;5074712;28;20171;-61
2022/01/29 05:04:26;;;;;;;6.00;5.50;;;16.20;53.70;;;;;;5074156;28;20175;-60
2022/01/29 05:06:51;;;;;;;6.50;5.90;;;16.20;53.70;;;;;;5075102;28;20657;-59
2022/01/29 05:09:17;;;;;;;5.93;5.43;;;16.20;53.70;;;;;;5074549;28;20178;-60
2022/01/29 05:11:46;;;;;;;5.43;5.03;;;16.20;53.70;;;;;;5074022;28;20185;-61
2022/01/29 05:14:19;;;;;;;5.75;5.25;;;16.20;53.80;;;;;;5074496;28;20189;-61
2022/01/29 05:25:36;;;;;;;5.80;5.40;;;16.20;53.80;;;;;;5075130;28;20178;-60
2022/01/29 05:27:52;;;;;;;5.75;5.25;;;16.20;53.80;;;;;;5074650;28;20212;-60
2022/01/29 05:30:17;;;;;;;7.03;6.43;;;16.20;53.90;;;;;;5074319;28;20624;-60
2022/01/29 05:32:43;;;;;;;6.68;6.07;;;16.10;53.80;;;;;;5073874;28;20174;-59
2022/01/29 05:35:09;;;;;;;5.97;5.47;;;16.10;53.80;;;;;;5073658;28;20174;-59
2022/01/29 05:37:34;;;;;;;5.90;5.30;;;16.10;53.80;;;;;;5074418;28;20530;-60
2022/01/29 05:40:00;;;;;;;6.22;5.63;;;16.10;53.80;;;;;;5073205;28;20266;-60
2022/01/29 05:42:25;;;;;;;6.10;5.57;;;16.20;53.90;;;;;;5074097;28;20209;-60
2022/01/29 05:44:51;;;;;;;5.93;5.43;;;16.10;53.80;;;;;;5074002;28;20261;-59
2022/01/29 05:47:16;;;;;;;5.55;5.05;;;16.10;53.80;;;;;;5073249;28;20206;-60
2022/01/29 05:49:41;;;;;;;6.38;5.80;;;16.10;53.80;;;;;;5074061;28;20175;-59
2022/01/29 05:52:10;;;;;;;5.88;5.38;;;16.10;53.80;;;;;;5073639;28;20279;-60
2022/01/29 05:54:35;;;;;;;5.72;5.22;;;16.10;53.90;;;;;;5073723;28;20179;-59
2022/01/29 05:57:01;;;;;;;6.38;5.78;;;16.10;53.90;;;;;;5073446;28;20233;-60
2022/01/29 05:59:26;;;;;;;5.85;5.32;;;16.10;53.90;;;;;;5073690;28;20727;-61
2022/01/29 06:01:52;;;;;;;6.28;5.63;;;16.10;53.90;;;;;;5073241;28;20178;-60
2022/01/29 06:04:17;;;;;;;6.32;5.75;;;16.10;54.00;;;;;;5073988;28;20187;-60
2022/01/29 06:06:43;;;;;;;7.10;6.50;;;16.00;53.90;;;;;;5073679;28;20206;-60
2022/01/29 06:09:08;;;;;;;6.32;5.72;;;16.10;53.90;;;;;;5072565;28;20171;-60
2022/01/29 06:11:34;;;;;;;6.75;6.15;;;16.00;53.90;;;;;;5073551;28;20185;-60
2022/01/29 06:14:00;;;;;;;6.82;6.18;;;16.10;54.00;;;;;;5073262;28;20174;-61
2022/01/29 06:16:25;;;;;;;6.95;6.35;;;16.00;53.90;;;;;;5073005;28;20192;-60
2022/01/29 06:18:51;;;;;;;6.45;5.95;;;16.00;54.00;;;;;;5073635;28;20533;-61
2022/01/29 06:21:16;;;;;;;6.18;5.65;;;16.00;54.00;;;;;;5072548;28;20737;-60
2022/01/29 06:23:43;;;;;;;5.70;5.20;;;16.00;54.00;;;;;;5073608;28;20174;-60
2022/01/29 06:26:12;;;;;;;5.85;5.25;;;16.00;54.00;;;;;;5072970;28;20210;-60
2022/01/29 06:28:38;;;;;;;6.18;5.57;;;16.00;54.00;;;;;;5072608;28;20174;-60
2022/01/29 06:31:04;;;;;;;6.43;5.85;;;16.00;54.10;;;;;;5073071;28;20178;-60
2022/01/29 06:33:29;;;;;;;6.43;5.85;;;16.00;54.00;;;;;;5073162;28;20182;-60
2022/01/29 06:35:55;;;;;;;6.25;5.70;;;16.00;54.10;;;;;;5072297;28;20166;-60
2022/01/29 06:38:21;;;;;;;5.93;5.43;;;16.00;54.00;;;;;;5073137;28;20178;-59
2022/01/29 06:40:46;;;;;;;6.60;6.00;;;16.00;54.10;;;;;;5073036;28;20181;-60
2022/01/29 06:43:12;;;;;;;6.13;5.63;;;16.00;54.10;;;;;;5071914;28;20178;-60
2022/01/29 06:45:38;;;;;;;5.68;5.07;;;16.00;54.10;;;;;;5072811;28;20681;-60
2022/01/29 06:48:04;;;;;;;6.22;5.38;;;16.00;54.10;;;;;;5072584;28;20541;-60
2022/01/29 06:50:29;;;;;;;6.00;5.50;;;16.00;54.10;;;;;;5072345;28;20185;-60
2022/01/29 06:52:55;;;;;;;6.30;5.70;;;15.90;54.10;;;;;;5072510;28;20226;-59
2022/01/29 06:55:20;;;;;;;6.30;5.78;;;16.00;54.20;;;;;;5072910;28;20607;-60
2022/01/29 06:57:46;;;;;;;5.60;5.10;;;16.00;54.10;;;;;;5072062;28;20174;-60
2022/01/29 07:00:12;;;;;;;5.90;5.40;;;15.90;54.20;;;;;;5072463;28;20166;-60
2022/01/29 07:02:37;;;;;;;6.13;5.53;;;15.90;54.10;;;;;;5072782;28;20265;-60
2022/01/29 07:05:04;;;;;;;5.70;5.15;;;15.90;54.20;;;;;;5071831;28;20232;-60
2022/01/29 07:07:29;;;;;;;6.25;5.75;;;15.90;54.20;;;;;;5073054;28;20178;-60
2022/01/29 07:09:55;;;;;;;5.35;4.95;;;15.90;54.20;;;;;;5072551;28;20220;-59
2022/01/29 07:12:20;;;;;;;5.88;5.30;;;16.00;54.20;;;;;;5071928;28;20521;-60
2022/01/29 07:14:49;;;;;;;5.68;5.28;;;16.00;54.20;;;;;;5072913;28;20173;-61
2022/01/29 07:17:17;;;;;;;4.97;4.57;;;16.00;54.10;;;;;;5072534;28;20175;-61
2022/01/29 07:19:44;;;;;;;5.45;4.95;;;16.10;54.30;;;;;;5072088;28;20174;-60
2022/01/29 07:22:09;;;;;;;5.95;4.70;;;16.20;54.30;;;;;;5072379;28;20223;-61
2022/01/29 07:24:35;;;;;;;4.70;4.30;;;16.20;54.20;;;;;;5071840;28;20171;-60
2022/01/29 07:27:00;;;;;;;4.40;4.10;;;16.40;54.10;;;;;;5072286;28;20359;-60
2022/01/29 07:29:26;;;;;;;4.57;4.18;;;16.50;53.90;;;;;;5072721;28;20171;-61
2022/01/29 07:31:51;;;;;;;4.25;3.90;;;16.60;53.70;;;;;;5071824;28;20174;-60
2022/01/29 07:34:17;;;;;;;4.60;3.95;;;16.80;53.60;;;;;;5072385;28;20166;-60
2022/01/29 07:36:43;;;;;;;3.75;3.42;;;17.00;53.40;;;;;;5072461;28;20721;-60
2022/01/29 07:39:08;;;;;;;3.92;3.53;;;17.20;53.10;;;;;;5071587;28;20171;-60
2022/01/29 07:41:34;;;;;;;3.53;3.22;;;17.40;52.90;;;;;;5072333;28;20675;-60
2022/01/29 07:43:59;;;;;;;3.75;3.45;;;17.60;52.50;;;;;;5072447;28;20178;-59
2022/01/29 07:46:25;;;;;;;3.42;3.17;;;17.80;52.10;;;;;;5071752;28;20260;-60
2022/01/29 07:48:50;;;;;;;3.22;3.03;;;18.00;51.70;;;;;;5072319;28;20226;-60
2022/01/29 07:51:16;;;;;;;3.05;2.85;;;18.00;51.60;;;;;;5071776;28;20569;-61
2022/01/29 07:53:41;;;;;;;3.20;2.90;;;18.10;51.60;;;;;;5071722;28;20182;-59
2022/01/29 07:56:07;;;;;;;3.63;3.33;;;18.10;51.60;;;;;;5071982;28;20181;-60
2022/01/29 07:58:32;;;;;;;3.00;2.80;;;18.20;51.50;;;;;;5074806;28;20601;-60
2022/01/29 08:00:58;;;;;;;3.35;3.05;;;18.20;51.60;;;;;;5075211;28;20175;-60
2022/01/29 08:03:23;;;;;;;3.25;2.72;;;18.20;51.60;;;;;;5076206;28;20197;-61
2022/01/29 08:05:49;;;;;;;2.80;2.58;;;18.20;51.60;;;;;;5075861;28;20213;-64
2022/01/29 08:08:14;;;;;;;3.17;2.88;;;18.20;51.70;;;;;;5074664;28;20202;-63
2022/01/29 08:10:40;;;;;;;4.60;3.13;;;18.30;51.60;;;;;;5075377;28;20708;-63
2022/01/29 08:13:05;;;;;;;2.58;2.38;;;18.20;51.50;;;;;;5075546;28;20171;-64
2022/01/29 08:15:31;;;;;;;3.70;2.33;;;18.20;51.70;;;;;;5074894;28;20170;-64
2022/01/29 08:17:56;;;;;;;2.97;2.78;;;18.10;51.90;;;;;;5075338;28;20224;-64
2022/01/29 08:20:22;;;;;;;3.05;2.53;;;18.00;52.00;;;;;;5075392;28;20651;-64
2022/01/29 08:22:48;;;;;;;2.92;2.55;;;18.00;52.10;;;;;;5074553;28;20240;-63
2022/01/29 08:25:14;;;;;;;2.70;2.50;;;18.00;52.10;;;;;;5074937;28;20186;-62
2022/01/29 08:27:40;;;;;;;3.33;2.50;;;18.10;52.10;;;;;;5075170;28;20595;-64
2022/01/29 08:30:06;;;;;;;2.55;2.15;;;18.10;52.10;;;;;;5074419;28;20163;-64
2022/01/29 08:32:31;;;;;;;2.15;1.95;;;18.10;52.10;;;;;;5075211;28;20685;-64
2022/01/29 08:34:57;;;;;;;2.17;2.08;;;18.20;52.00;;;;;;5074152;28;20252;-65
2022/01/29 08:37:23;;;;;;;2.80;2.33;;;18.20;52.00;;;;;;5075111;28;20625;-68
2022/01/29 08:39:48;;;;;;;2.85;2.40;;;18.20;51.90;;;;;;5074925;28;20629;-64
2022/01/29 08:42:14;;;;;;;3.05;2.20;;;18.20;51.90;;;;;;5073049;28;20181;-64
2022/01/29 08:44:40;;;;;;;3.15;2.00;;;18.30;52.00;;;;;;5055012;28;20199;-63
2022/01/29 08:47:06;;;;;;;3.80;2.38;;;18.40;52.20;;;;;;5054728;28;20269;-64
2022/01/29 08:49:31;;;;;;;2.55;2.10;;;18.50;52.00;;;;;;5054443;28;20167;-64
2022/01/29 08:51:57;;;;;;;3.50;2.10;;;18.40;52.10;;;;;;5054382;28;20594;-64
2022/01/29 08:54:22;;;;;;;2.15;1.98;;;18.40;52.20;;;;;;5054836;28;20270;-66
2022/01/29 08:56:48;;;;;;;3.25;2.20;;;18.50;52.30;;;;;;5054149;28;20199;-64
2022/01/29 08:59:13;;;;;;;3.72;2.22;;;18.50;52.50;;;;;;5054812;28;20171;-64
2022/01/29 09:01:39;;;;;;;4.80;2.53;;;18.60;52.80;;;;;;5054720;28;20206;-64
2022/01/29 09:04:05;;;;;;;3.50;2.22;;;18.60;52.80;;;;;;5053434;28;20565;-64
2022/01/29 09:06:30;;;;;;;3.05;2.20;;;18.60;52.70;;;;;;5054557;28;20215;-68
2022/01/29 09:08:56;;;;;;;2.40;1.90;;;18.60;52.60;;;;;;5053750;28;20653;-63
2022/01/29 09:11:21;;;;;;;4.60;1.88;;;18.70;52.80;;;;;;5053736;28;20187;-64
2022/01/29 09:13:47;;;;;;;3.63;1.92;;;18.60;52.90;;;;;;5056580;28;20167;-64
2022/01/29 09:16:12;;;;;;;6.13;2.40;;;18.60;53.50;;;;;;5069074;28;20175;-65
2022/01/29 09:18:44;;;;;;;2.42;2.10;;;18.60;53.00;;;;;;5053447;28;20648;-64
2022/01/29 09:21:10;;;;;;;3.45;2.00;;;18.50;53.20;;;;;;5064351;28;20595;-64
2022/01/29 09:23:35;;;;;;;2.28;2.08;;;18.50;53.30;;;;;;5073056;28;20173;-63
2022/01/29 09:26:03;;;;;;;2.60;1.73;;;18.50;53.20;;;;;;5073098;28;20226;-63
2022/01/29 09:28:29;;;;;;;2.33;2.00;;;18.50;53.30;;;;;;5073700;28;20163;-64
2022/01/29 09:30:54;;;;;;;2.97;1.95;;;18.50;53.30;;;;;;5053964;28;20532;-65
2022/01/29 09:33:20;;;;;;;1.58;1.48;;;18.50;53.40;;;;;;5053616;28;20217;-65
2022/01/29 09:35:45;;;;;;;2.17;1.80;;;18.50;53.40;;;;;;5054279;28;20183;-65
2022/01/29 09:38:11;;;;;;;3.63;2.15;;;18.50;53.40;;;;;;5053022;28;20171;-65
2022/01/29 09:40:37;;;;;;;2.50;2.17;;;18.50;53.40;;;;;;5054137;28;20221;-65
2022/01/29 09:43:05;;;;;;;2.17;1.77;;;18.40;53.40;;;;;;5053050;28;20175;-65
2022/01/29 09:45:31;;;;;;;2.15;1.50;;;18.40;53.60;;;;;;5052132;28;20215;-64
2022/01/29 09:48:03;;;;;;;4.32;2.28;;;18.30;53.60;;;;;;5073531;28;20648;-64
2022/01/29 09:50:30;;;;;;;3.13;2.25;;;18.30;53.70;;;;;;5073773;28;20224;-64
2022/01/29 09:52:55;;;;;;;2.47;1.98;;;18.20;53.70;;;;;;5072242;28;20230;-64
2022/01/29 09:55:21;;;;;;;1.98;1.80;;;18.10;53.90;;;;;;5073677;28;20167;-64
2022/01/29 09:57:47;;;;;;;2.33;1.95;;;18.10;54.10;;;;;;5073924;28;20178;-65
2022/01/29 10:00:13;;;;;;;3.10;1.73;;;18.10;54.20;;;;;;5072345;28;20575;-64
2022/01/29 10:02:38;;;;;;;2.83;1.80;;;18.10;54.20;;;;;;5073558;28;20261;-65
2022/01/29 10:05:05;;;;;;;1.70;1.60;;;18.10;54.20;;;;;;5073232;28;20167;-65
2022/01/29 10:07:31;;;;;;;2.28;1.70;;;18.20;54.20;;;;;;5072574;28;20216;-65
2022/01/29 10:09:57;;;;;;;2.00;1.80;;;18.10;54.20;;;;;;5073266;28;20178;-65
2022/01/29 10:12:24;;;;;;;2.60;1.63;;;18.10;54.20;;;;;;5073308;28;20584;-63
2022/01/29 10:14:56;;;;;;;1.98;1.65;;;18.20;54.20;;;;;;5072623;28;20251;-64
2022/01/29 10:17:45;;;;;;;2.38;1.85;;;18.20;54.20;;;;;;5073134;28;20520;-65
2022/01/29 10:20:17;;;;;;;2.13;1.77;;;18.20;54.10;;;;;;5067720;28;20185;-64
2022/01/29 10:22:45;;;;;;;2.33;1.75;;;18.20;54.20;;;;;;5052130;28;20171;-64
2022/01/29 10:25:12;;;;;;;2.00;1.48;;;18.20;54.10;;;;;;5052943;28;20238;-64
2022/01/29 10:27:38;;;;;;;1.60;1.50;;;18.20;54.10;;;;;;5052599;28;20289;-64
2022/01/29 10:30:04;;;;;;;2.28;1.77;;;18.10;54.10;;;;;;5052807;28;20175;-65
2022/01/29 10:32:30;;;;;;;4.13;2.03;;;18.10;54.20;;;;;;5052848;28;20178;-65
2022/01/29 10:35:05;;;;;;;2.15;1.60;;;18.10;54.20;;;;;;5051961;28;20167;-65
2022/01/29 10:37:30;;;;;;;2.20;1.70;;;18.00;54.30;;;;;;5053083;28;20182;-65
2022/01/29 10:40:01;;;;;;;1.38;1.27;;;18.00;54.50;;;;;;5052688;28;20661;-65
2022/01/29 10:42:35;;;;;;;2.65;1.75;;;18.00;54.40;;;;;;5052368;28;20171;-65
2022/01/29 10:45:06;;;;;;;2.53;1.65;;;18.00;54.40;;;;;;5052182;28;20529;-65
2022/01/29 10:47:51;;;;;;;1.80;1.35;;;18.00;54.50;;;;;;5052534;28;20661;-64
2022/01/29 10:50:16;;;;;;;1.92;1.52;;;18.10;54.40;;;;;;5051676;28;20547;-65
2022/01/29 10:52:42;;;;;;;3.20;1.33;;;18.10;54.40;;;;;;5052496;28;20689;-64
2022/01/29 10:55:08;;;;;;;1.70;1.50;;;18.10;54.90;;;;;;5052331;28;20171;-64
2022/01/29 10:57:35;;;;;;;2.47;1.30;;;18.20;54.20;;;;;;5051656;28;20245;-64
2022/01/29 11:00:02;;;;;;;1.70;1.20;;;18.20;54.20;;;;;;5052341;28;20187;-64
2022/01/29 11:02:30;;;;;;;1.65;1.52;;;18.10;54.30;;;;;;5052732;28;20179;-63
2022/01/29 11:04:56;;;;;;;2.15;1.63;;;18.10;54.30;;;;;;5052303;28;20182;-65
2022/01/29 11:07:26;;;;;;;2.17;1.50;;;18.10;54.30;;;;;;5052463;28;20650;-64
2022/01/29 11:09:52;;;;;;;2.33;1.38;;;18.00;54.40;;;;;;5051969;28;20155;-64
2022/01/29 11:12:19;;;;;;;2.40;1.73;;;18.00;54.60;;;;;;5052483;28;20177;-64
2022/01/29 11:14:44;;;;;;;2.30;1.20;;;18.00;54.60;;;;;;5052300;28;20654;-64
2022/01/29 11:17:11;;;;;;;1.95;1.20;;;18.00;54.60;;;;;;5051260;28;20194;-64
2022/01/29 11:19:37;;;;;;;1.88;1.48;;;18.00;54.70;;;;;;5052197;28;20221;-64
2022/01/29 11:22:04;;;;;;;2.22;1.55;;;18.10;54.60;;;;;;5014684;28;20188;-64
2022/01/29 11:24:30;;;;;;;1.63;1.17;;;18.10;54.50;;;;;;5030557;28;20258;-63
2022/01/29 11:26:56;;;;;;;1.88;1.38;;;18.10;54.50;;;;;;5031227;28;20302;-64
2022/01/29 11:29:36;;;;;;;2.38;1.38;;;18.10;54.40;;;;;;5032620;28;20255;-64
2022/01/29 11:32:20;;;;;;;1.40;1.30;;;18.10;54.50;;;;;;5032083;28;20175;-64
2022/01/29 11:35:19;;;;;;;1.98;1.20;;;18.00;54.40;;;;;;5036622;28;20207;-65
2022/01/29 11:38:04;;;;;;;1.20;1.10;;;17.90;54.60;;;;;;5035702;28;20183;-65
2022/01/29 11:40:31;;;;;;;0.90;0.90;;;17.90;54.70;;;;;;5036601;28;20168;-64
2022/01/29 11:43:30;;;;;;;1.50;1.40;;;17.90;54.80;;;;;;5036141;28;20616;-65
2022/01/29 11:46:07;;;;;;;1.50;1.40;;;17.90;54.70;;;;;;5034875;28;20254;-65
2022/01/29 11:48:38;;;;;;;1.65;1.35;;;17.90;54.70;;;;;;5036409;28;20183;-65
2022/01/29 11:51:10;;;;;;;1.05;0.95;;;18.00;54.70;;;;;;5035693;28;20176;-64
2022/01/29 11:53:45;;;;;;;1.13;1.00;;;18.00;54.60;;;;;;5035274;28;20214;-65
2022/01/29 11:56:39;;;;;;;1.20;1.10;;;18.00;54.60;;;;;;5035977;28;20258;-64
2022/01/29 11:59:20;;;;;;;2.00;1.05;;;18.00;54.60;;;;;;5035257;28;20164;-68
2022/01/29 12:02:14;;;;;;;1.55;1.25;;;17.90;54.60;;;;;;5035998;28;20693;-65
2022/01/29 12:04:53;;;;;;;1.83;1.30;;;17.90;54.80;;;;;;5034889;28;20179;-63
2022/01/29 12:07:26;;;;;;;3.28;1.20;;;17.80;54.90;;;;;;5035299;28;20268;-64
2022/01/29 12:10:07;;;;;;;3.80;1.10;;;17.80;55.00;;;;;;5035925;28;20168;-63
2022/01/29 12:12:40;;;;;;;2.22;1.30;;;17.90;55.10;;;;;;5035640;28;20183;-69
2022/01/29 12:15:08;;;;;;;4.38;1.35;;;17.90;55.10;;;;;;5034956;28;20179;-63
2022/01/29 12:17:42;;;;;;;3.55;1.20;;;18.00;55.00;;;;;;5035972;28;20168;-62
2022/01/29 12:20:09;;;;;;;1.65;1.10;;;18.20;54.80;;;;;;5042757;28;20182;-63
2022/01/29 12:22:35;;;;;;;3.00;1.27;;;18.40;54.60;;;;;;5075549;28;20585;-63
2022/01/29 12:25:02;;;;;;;2.17;1.30;;;18.50;54.30;;;;;;5074857;28;20294;-62
2022/01/29 12:27:45;;;;;;;3.00;1.25;;;18.80;53.80;;;;;;5074706;28;20202;-63
2022/01/29 12:30:13;;;;;;;1.80;1.00;;;19.00;53.50;;;;;;5075180;28;20270;-66
2022/01/29 12:32:38;;;;;;;5.22;1.13;;;19.10;53.40;;;;;;5075353;28;20186;-62
2022/01/29 12:35:04;;;;;;;3.00;1.40;;;19.20;53.00;;;;;;5074372;28;20529;-62
2022/01/29 12:37:29;;;;;;;3.22;1.00;;;19.30;53.10;;;;;;5075000;28;20652;-63
2022/01/29 12:40:18;;;;;;;2.50;1.30;;;19.30;53.00;;;;;;5074936;28;20201;-62
2022/01/29 12:42:46;;;;;;;1.52;1.00;;;19.30;53.00;;;;;;5074365;28;20178;-62
2022/01/29 12:45:12;;;;;;;3.05;1.10;;;19.30;53.00;;;;;;5073796;28;20179;-62
2022/01/29 12:47:37;;;;;;;2.28;1.30;;;19.30;53.00;;;;;;5075228;28;20202;-62
2022/01/29 12:50:04;;;;;;;2.22;1.00;;;19.40;53.00;;;;;;5073810;28;20257;-64
2022/01/29 12:52:30;;;;;;;4.70;1.15;;;19.50;53.00;;;;;;5074830;28;20229;-63
2022/01/29 12:55:02;;;;;;;2.42;1.05;;;19.50;52.80;;;;;;5074750;28;20171;-63
2022/01/29 12:57:45;;;;;;;1.15;1.00;;;19.60;52.60;;;;;;5075020;28;20198;-64
2022/01/29 13:00:15;;;;;;;1.88;0.95;;;19.60;52.60;;;;;;5074711;28;20204;-64